createdAt,value
2017-11-03T00:00:06.916Z,95.3
2017-11-03T00:01:08.343Z,94.7
2017-11-03T00:02:09.840Z,95.0
2017-11-03T00:03:11.515Z,95.5
2017-11-03T00:04:13.004Z,95.5
2017-11-03T00:05:14.447Z,95.3
2017-11-03T00:06:16.092Z,95.7
2017-11-03T00:07:17.523Z,95.5
2017-11-03T00:08:19.188Z,95.5
2017-11-03T00:09:20.595Z,95.5
2017-11-03T00:10:21.990Z,95.4
2017-11-03T00:11:23.478Z,95.6
2017-11-03T00:12:24.969Z,95.5
2017-11-03T00:13:26.390Z,95.4
2017-11-03T00:14:27.803Z,95.4
2017-11-03T00:15:29.236Z,95.4
2017-11-03T00:16:30.670Z,95.6
2017-11-03T00:17:32.105Z,95.6
2017-11-03T00:18:33.546Z,96.0
2017-11-03T00:19:35.026Z,95.9
2017-11-03T00:20:36.465Z,95.8
2017-11-03T00:21:37.929Z,95.7
2017-11-03T00:22:39.313Z,95.7
2017-11-03T00:23:42.411Z,95.7
2017-11-03T00:24:43.867Z,95.7
2017-11-03T00:25:45.312Z,95.8
2017-11-03T00:26:46.753Z,96.0
2017-11-03T00:27:48.189Z,95.9
2017-11-03T00:28:49.622Z,95.5
2017-11-03T00:29:51.025Z,95.5
2017-11-03T00:30:52.496Z,95.4
2017-11-03T00:31:54.004Z,95.2
2017-11-03T00:32:55.532Z,95.4
2017-11-03T00:33:56.951Z,95.2
2017-11-03T00:34:58.354Z,95.4
2017-11-03T00:35:59.818Z,95.3
2017-11-03T00:37:01.244Z,95.3
2017-11-03T00:38:02.661Z,95.5
2017-11-03T00:39:04.033Z,95.3
2017-11-03T00:40:05.468Z,95.1
2017-11-03T00:41:06.986Z,95.3
2017-11-03T00:42:08.395Z,94.8
2017-11-03T00:43:09.905Z,95.1
2017-11-03T00:44:11.373Z,95.1
2017-11-03T00:45:12.779Z,95.2
2017-11-03T00:46:14.258Z,94.9
2017-11-03T00:47:15.662Z,95.1
2017-11-03T00:48:17.074Z,95.1
2017-11-03T00:49:18.498Z,95.0
2017-11-03T00:50:19.958Z,95.3
2017-11-03T00:51:21.422Z,95.3
2017-11-03T00:52:22.830Z,94.7
2017-11-03T00:53:24.241Z,95.2
2017-11-03T00:54:25.704Z,94.7
2017-11-03T00:55:27.145Z,95.1
2017-11-03T00:56:28.555Z,95.1
2017-11-03T00:57:29.969Z,95.2
2017-11-03T00:58:31.423Z,94.6
2017-11-03T00:59:32.870Z,94.4
2017-11-03T01:00:34.353Z,94.6
2017-11-03T01:01:35.786Z,94.6
2017-11-03T01:02:37.186Z,94.6
2017-11-03T01:03:38.610Z,94.7
2017-11-03T01:04:40.064Z,94.9
2017-11-03T01:05:41.555Z,94.7
2017-11-03T01:06:43.042Z,94.7
2017-11-03T01:07:44.634Z,94.6
2017-11-03T01:08:46.037Z,95.2
2017-11-03T01:09:47.492Z,94.7
2017-11-03T01:10:48.924Z,94.7
2017-11-03T01:11:50.386Z,94.7
2017-11-03T01:12:51.827Z,95.3
2017-11-03T01:13:53.313Z,95.3
2017-11-03T01:14:54.744Z,95.1
2017-11-03T01:15:56.222Z,95.0
2017-11-03T01:16:57.653Z,95.0
2017-11-03T01:17:59.117Z,95.4
2017-11-03T01:19:00.587Z,95.1
2017-11-03T01:20:02.049Z,95.2
2017-11-03T01:21:03.477Z,95.5
2017-11-03T01:22:05.191Z,95.1
2017-11-03T01:23:06.800Z,95.3
2017-11-03T01:24:08.237Z,95.4
2017-11-03T01:25:09.644Z,95.1
2017-11-03T01:26:11.067Z,95.0
2017-11-03T01:27:12.494Z,95.5
2017-11-03T01:28:13.903Z,95.3
2017-11-03T01:29:15.368Z,95.3
2017-11-03T01:30:16.989Z,95.3
2017-11-03T01:31:18.714Z,95.5
2017-11-03T01:32:20.524Z,95.3
2017-11-03T01:33:22.309Z,95.8
2017-11-03T01:34:23.731Z,95.4
2017-11-03T01:35:25.208Z,95.5
2017-11-03T01:36:26.657Z,95.3
2017-11-03T01:37:28.116Z,95.4
2017-11-03T01:38:29.549Z,95.4
2017-11-03T01:39:31.104Z,95.3
2017-11-03T01:40:32.731Z,95.3
2017-11-03T01:41:34.118Z,95.4
2017-11-03T01:42:35.559Z,95.2
2017-11-03T01:43:36.972Z,95.2
2017-11-03T01:44:38.698Z,95.6
2017-11-03T01:45:40.390Z,95.2
2017-11-03T01:46:41.818Z,95.2
2017-11-03T01:47:43.224Z,95.2
2017-11-03T01:48:44.691Z,95.2
2017-11-03T01:49:46.093Z,95.4
2017-11-03T01:50:47.504Z,95.5
2017-11-03T01:51:48.943Z,95.9
2017-11-03T01:52:50.389Z,95.6
2017-11-03T01:53:51.826Z,95.6
2017-11-03T01:54:53.239Z,95.8
2017-11-03T01:55:54.645Z,96.0
2017-11-03T01:56:56.128Z,95.9
2017-11-03T01:57:57.528Z,95.6
2017-11-03T01:58:58.928Z,95.6
2017-11-03T02:00:00.386Z,96.1
2017-11-03T02:01:01.823Z,96.3
2017-11-03T02:02:03.235Z,95.7
2017-11-03T02:03:04.683Z,95.8
2017-11-03T02:04:06.175Z,96.0
2017-11-03T02:05:07.603Z,96.1
2017-11-03T02:06:09.013Z,95.8
2017-11-03T02:07:10.414Z,95.6
2017-11-03T02:08:11.833Z,95.6
2017-11-03T02:09:13.292Z,96.0
2017-11-03T02:10:14.752Z,95.8
2017-11-03T02:11:16.228Z,95.8
2017-11-03T02:12:18.026Z,95.9
2017-11-03T02:13:19.425Z,96.0
2017-11-03T02:14:20.830Z,95.2
2017-11-03T02:15:22.519Z,95.5
2017-11-03T02:16:23.966Z,95.5
2017-11-03T02:17:25.387Z,95.3
2017-11-03T02:18:26.805Z,95.5
2017-11-03T02:19:28.194Z,95.3
2017-11-03T02:20:29.598Z,95.4
2017-11-03T02:21:31.041Z,95.5
2017-11-03T02:22:32.466Z,95.6
2017-11-03T02:23:33.877Z,95.4
2017-11-03T02:24:35.570Z,95.5
2017-11-03T02:25:37.267Z,95.5
2017-11-03T02:26:38.672Z,94.7
2017-11-03T02:27:40.198Z,94.8
2017-11-03T02:28:41.650Z,94.8
2017-11-03T02:29:43.027Z,95.1
2017-11-03T02:30:44.509Z,95.1
2017-11-03T02:31:45.904Z,94.9
2017-11-03T02:32:47.357Z,95.1
2017-11-03T02:33:48.824Z,95.3
2017-11-03T02:34:50.313Z,95.1
2017-11-03T02:35:51.699Z,95.1
2017-11-03T02:36:53.373Z,95.1
2017-11-03T02:37:54.939Z,95.0
2017-11-03T02:38:56.380Z,95.2
2017-11-03T02:39:57.777Z,94.9
2017-11-03T02:40:59.435Z,95.1
2017-11-03T02:42:00.832Z,94.7
2017-11-03T02:43:02.477Z,95.1
2017-11-03T02:44:04.210Z,94.9
2017-11-03T02:45:05.999Z,95.1
2017-11-03T02:46:07.773Z,95.1
2017-11-03T02:47:09.245Z,95.4
2017-11-03T02:48:10.769Z,94.8
2017-11-03T02:49:12.225Z,94.7
2017-11-03T02:50:14.060Z,94.7
2017-11-03T02:51:15.735Z,94.3
2017-11-03T02:52:17.530Z,94.3
2017-11-03T02:53:19.322Z,94.5
2017-11-03T02:54:20.769Z,94.6
2017-11-03T02:55:22.251Z,94.3
2017-11-03T02:56:23.677Z,94.3
2017-11-03T02:57:25.402Z,94.9
2017-11-03T02:58:26.881Z,94.4
2017-11-03T02:59:28.315Z,94.3
2017-11-03T03:00:29.821Z,94.3
2017-11-03T03:01:31.294Z,94.4
2017-11-03T03:02:32.845Z,94.4
2017-11-03T03:03:34.607Z,94.3
2017-11-03T03:04:36.378Z,94.6
2017-11-03T03:05:37.821Z,95.1
2017-11-03T03:06:39.444Z,95.2
2017-11-03T03:07:41.173Z,95.4
2017-11-03T03:08:42.981Z,95.6
2017-11-03T03:09:44.651Z,96.2
2017-11-03T03:10:46.416Z,95.9
2017-11-03T03:11:48.091Z,95.8
2017-11-03T03:12:49.818Z,96.5
2017-11-03T03:13:51.288Z,96.7
2017-11-03T03:14:52.731Z,96.6
2017-11-03T03:15:54.186Z,96.5
2017-11-03T03:16:55.611Z,96.2
2017-11-03T03:17:57.051Z,96.6
2017-11-03T03:18:58.483Z,96.8
2017-11-03T03:19:59.954Z,96.5
2017-11-03T03:21:01.368Z,96.6
2017-11-03T03:22:02.769Z,96.5
2017-11-03T03:23:04.241Z,96.5
2017-11-03T03:24:05.679Z,95.8
2017-11-03T03:25:07.109Z,95.6
2017-11-03T03:26:08.508Z,96.1
2017-11-03T03:27:09.935Z,95.6
2017-11-03T03:28:11.390Z,95.9
2017-11-03T03:29:12.856Z,95.6
2017-11-03T03:30:14.285Z,95.8
2017-11-03T03:31:15.675Z,95.8
2017-11-03T03:32:17.408Z,96.0
2017-11-03T03:33:19.097Z,96.0
2017-11-03T03:34:20.610Z,95.4
2017-11-03T03:35:22.040Z,95.2
2017-11-03T03:36:23.446Z,95.3
2017-11-03T03:37:25.112Z,95.2
2017-11-03T03:38:26.526Z,95.3
2017-11-03T03:39:27.985Z,95.6
2017-11-03T03:40:29.402Z,95.3
2017-11-03T03:41:31.157Z,95.6
2017-11-03T03:42:32.947Z,95.3
2017-11-03T03:43:34.639Z,95.5
2017-11-03T03:44:36.334Z,95.4
2017-11-03T03:45:37.814Z,95.4
2017-11-03T03:46:39.237Z,95.5
2017-11-03T03:47:40.653Z,95.5
2017-11-03T03:48:42.169Z,95.5
2017-11-03T03:49:43.575Z,95.5
2017-11-03T03:50:45.004Z,95.5
2017-11-03T03:51:46.431Z,94.8
2017-11-03T03:52:47.879Z,94.8
2017-11-03T03:53:49.332Z,95.3
2017-11-03T03:54:50.782Z,94.9
2017-11-03T03:55:52.288Z,95.1
2017-11-03T03:56:53.719Z,95.2
2017-11-03T03:57:55.161Z,95.1
2017-11-03T03:58:56.596Z,94.4
2017-11-03T03:59:58.016Z,94.4
2017-11-03T04:00:59.447Z,94.6
2017-11-03T04:02:00.930Z,94.6
2017-11-03T04:03:02.574Z,94.7
2017-11-03T04:04:04.058Z,94.3
2017-11-03T04:05:05.454Z,94.7
2017-11-03T04:06:06.953Z,94.7
2017-11-03T04:07:08.384Z,94.4
2017-11-03T04:08:09.767Z,94.6
2017-11-03T04:09:11.178Z,94.3
2017-11-03T04:10:12.600Z,94.4
2017-11-03T04:11:14.099Z,94.3
2017-11-03T04:12:15.518Z,94.3
2017-11-03T04:13:16.960Z,94.3
2017-11-03T04:14:18.343Z,94.5
2017-11-03T04:15:19.825Z,94.6
2017-11-03T04:16:21.366Z,94.6
2017-11-03T04:17:23.051Z,94.7
2017-11-03T04:18:24.515Z,94.6
2017-11-03T04:19:25.986Z,94.6
2017-11-03T04:20:27.732Z,94.8
2017-11-03T04:21:29.425Z,94.8
2017-11-03T04:22:30.842Z,95.3
2017-11-03T04:23:32.569Z,94.9
2017-11-03T04:24:34.288Z,95.2
2017-11-03T04:25:36.014Z,94.7
2017-11-03T04:26:37.784Z,95.4
2017-11-03T04:27:39.185Z,95.3
2017-11-03T04:28:40.748Z,94.8
2017-11-03T04:29:42.229Z,95.6
2017-11-03T04:30:43.669Z,95.1
2017-11-03T04:31:45.099Z,95.2
2017-11-03T04:32:46.510Z,95.6
2017-11-03T04:33:47.967Z,95.1
2017-11-03T04:34:49.384Z,94.8
2017-11-03T04:35:50.783Z,95.0
2017-11-03T04:36:52.508Z,95.2
2017-11-03T04:37:54.206Z,95.1
2017-11-03T04:38:55.943Z,94.9
2017-11-03T04:39:58.525Z,95.2
2017-11-03T04:41:00.010Z,95.4
2017-11-03T04:42:01.397Z,94.8
2017-11-03T04:43:02.871Z,95.1
2017-11-03T04:44:04.438Z,95.4
2017-11-03T04:45:05.871Z,94.6
2017-11-03T04:46:07.354Z,94.7
2017-11-03T04:47:08.757Z,94.9
2017-11-03T04:48:10.160Z,94.7
2017-11-03T04:49:11.590Z,94.4
2017-11-03T04:50:12.996Z,94.4
2017-11-03T04:51:14.436Z,94.5
2017-11-03T04:52:15.994Z,94.1
2017-11-03T04:53:17.470Z,94.3
2017-11-03T04:54:18.941Z,94.4
2017-11-03T04:55:20.375Z,94.1
2017-11-03T04:56:22.102Z,94.6
2017-11-03T04:57:23.856Z,94.4
2017-11-03T04:58:25.282Z,94.5
2017-11-03T04:59:26.718Z,94.3
2017-11-03T05:00:28.134Z,94.0
2017-11-03T05:01:29.542Z,94.4
2017-11-03T05:02:31.045Z,94.3
2017-11-03T05:03:32.528Z,94.0
2017-11-03T05:04:33.954Z,94.2
2017-11-03T05:05:35.373Z,94.4
2017-11-03T05:06:36.823Z,94.1
2017-11-03T05:07:38.240Z,94.6
2017-11-03T05:08:39.675Z,93.9
2017-11-03T05:09:41.115Z,94.3
2017-11-03T05:10:42.619Z,93.6
2017-11-03T05:11:44.091Z,93.9
2017-11-03T05:12:45.545Z,93.8
2017-11-03T05:13:47.285Z,93.6
2017-11-03T05:14:48.985Z,93.7
2017-11-03T05:15:50.418Z,93.9
2017-11-03T05:16:51.832Z,93.8
2017-11-03T05:17:53.354Z,93.5
2017-11-03T05:18:54.785Z,93.7
2017-11-03T05:19:56.177Z,94.0
2017-11-03T05:20:57.632Z,94.1
2017-11-03T05:21:59.347Z,94.0
2017-11-03T05:23:01.061Z,93.8
2017-11-03T05:24:02.818Z,93.6
2017-11-03T05:25:04.557Z,93.7
2017-11-03T05:26:06.215Z,93.8
2017-11-03T05:27:07.659Z,93.5
2017-11-03T05:28:09.132Z,94.1
2017-11-03T05:29:10.790Z,93.9
2017-11-03T05:30:12.351Z,93.7
2017-11-03T05:31:13.795Z,93.2
2017-11-03T05:32:15.220Z,93.6
2017-11-03T05:33:16.708Z,93.7
2017-11-03T05:34:18.146Z,93.8
2017-11-03T05:35:19.590Z,93.6
2017-11-03T05:36:21.048Z,94.2
2017-11-03T05:37:22.718Z,93.9
2017-11-03T05:38:24.521Z,94.1
2017-11-03T05:39:26.200Z,93.6
2017-11-03T05:40:27.679Z,93.7
2017-11-03T05:41:29.089Z,93.6
2017-11-03T05:42:30.636Z,93.7
2017-11-03T05:43:32.076Z,93.7
2017-11-03T05:44:33.485Z,93.9
2017-11-03T05:45:34.907Z,94.2
2017-11-03T05:46:36.378Z,93.6
2017-11-03T05:47:37.817Z,94.3
2017-11-03T05:48:39.259Z,94.4
2017-11-03T05:49:40.707Z,94.3
2017-11-03T05:50:42.167Z,94.3
2017-11-03T05:51:43.631Z,94.4
2017-11-03T05:52:45.044Z,94.5
2017-11-03T05:53:46.464Z,94.4
2017-11-03T05:54:47.899Z,94.6
2017-11-03T05:55:49.317Z,94.2
2017-11-03T05:56:50.760Z,94.2
2017-11-03T05:57:52.226Z,94.4
2017-11-03T05:58:53.917Z,94.4
2017-11-03T05:59:55.697Z,94.1
2017-11-03T06:00:57.179Z,94.0
2017-11-03T06:01:58.596Z,94.4
2017-11-03T06:03:00.012Z,94.3
2017-11-03T06:04:01.418Z,94.2
2017-11-03T06:05:02.871Z,94.0
2017-11-03T06:06:04.230Z,93.7
2017-11-03T06:07:05.671Z,94.3
2017-11-03T06:08:07.120Z,94.6
2017-11-03T06:09:08.546Z,94.4
2017-11-03T06:10:09.955Z,94.0
2017-11-03T06:11:11.388Z,94.2
2017-11-03T06:12:12.816Z,93.9
2017-11-03T06:13:14.234Z,94.4
2017-11-03T06:14:15.693Z,94.3
2017-11-03T06:15:17.086Z,94.5
2017-11-03T06:16:18.511Z,93.9
2017-11-03T06:17:19.909Z,94.6
2017-11-03T06:18:21.314Z,93.9
2017-11-03T06:19:22.716Z,94.6
2017-11-03T06:20:24.107Z,94.4
2017-11-03T06:21:25.516Z,94.5
2017-11-03T06:22:26.958Z,94.2
2017-11-03T06:23:28.339Z,94.2
2017-11-03T06:24:29.736Z,94.5
2017-11-03T06:25:31.168Z,94.2
2017-11-03T06:26:32.641Z,93.9
2017-11-03T06:27:34.095Z,94.3
2017-11-03T06:28:35.522Z,94.7
2017-11-03T06:29:36.922Z,94.6
2017-11-03T06:30:38.313Z,94.6
2017-11-03T06:31:39.721Z,94.3
2017-11-03T06:32:41.156Z,94.3
2017-11-03T06:33:42.589Z,94.4
2017-11-03T06:34:44.002Z,94.1
2017-11-03T06:35:45.432Z,94.2
2017-11-03T06:36:46.843Z,94.3
2017-11-03T06:37:48.280Z,94.5
2017-11-03T06:38:49.666Z,94.4
2017-11-03T06:39:51.089Z,94.4
2017-11-03T06:40:52.546Z,94.3
2017-11-03T06:41:53.984Z,94.3
2017-11-03T06:42:55.381Z,94.3
2017-11-03T06:43:56.803Z,94.5
2017-11-03T06:44:58.208Z,94.4
2017-11-03T06:45:59.666Z,94.3
2017-11-03T06:47:01.085Z,94.1
2017-11-03T06:48:02.508Z,94.6
2017-11-03T06:49:03.902Z,94.5
2017-11-03T06:50:05.325Z,94.5
2017-11-03T06:51:06.769Z,94.5
2017-11-03T06:52:08.170Z,94.0
2017-11-03T06:53:09.625Z,93.8
2017-11-03T06:54:11.046Z,93.7
2017-11-03T06:55:12.520Z,94.0
2017-11-03T06:56:13.980Z,94.0
2017-11-03T06:57:15.388Z,93.8
2017-11-03T06:58:16.779Z,93.3
2017-11-03T06:59:18.221Z,93.4
2017-11-03T07:00:19.621Z,93.6
2017-11-03T07:01:21.264Z,93.8
2017-11-03T07:02:22.668Z,93.5
2017-11-03T07:03:24.090Z,93.1
2017-11-03T07:04:25.554Z,93.3
2017-11-03T07:05:26.963Z,93.6
2017-11-03T07:06:28.410Z,93.3
2017-11-03T07:07:29.868Z,93.4
2017-11-03T07:08:31.325Z,93.5
2017-11-03T07:09:32.738Z,93.1
2017-11-03T07:10:34.151Z,93.1
2017-11-03T07:11:35.560Z,92.9
2017-11-03T07:12:36.975Z,93.4
2017-11-03T07:13:38.375Z,93.9
2017-11-03T07:14:39.810Z,93.3
2017-11-03T07:15:41.217Z,93.2
2017-11-03T07:16:42.653Z,92.9
2017-11-03T07:17:44.103Z,93.2
2017-11-03T07:18:45.499Z,93.6
2017-11-03T07:19:46.953Z,93.5
2017-11-03T07:20:48.403Z,93.6
2017-11-03T07:21:49.797Z,93.6
2017-11-03T07:22:51.187Z,93.6
2017-11-03T07:23:52.676Z,93.8
2017-11-03T07:24:54.093Z,93.9
2017-11-03T07:25:55.492Z,93.3
2017-11-03T07:26:56.937Z,92.9
2017-11-03T07:27:58.325Z,92.8
2017-11-03T07:28:59.778Z,93.4
2017-11-03T07:30:01.194Z,92.8
2017-11-03T07:31:02.631Z,92.3
2017-11-03T07:32:04.069Z,92.4
2017-11-03T07:33:05.458Z,92.8
2017-11-03T07:34:06.865Z,92.8
2017-11-03T07:35:08.305Z,92.8
2017-11-03T07:36:09.763Z,92.5
2017-11-03T07:37:11.138Z,92.6
2017-11-03T07:38:12.607Z,92.7
2017-11-03T07:39:14.006Z,92.5
2017-11-03T07:40:15.495Z,92.8
2017-11-03T07:41:16.927Z,92.3
2017-11-03T07:42:18.380Z,92.3
2017-11-03T07:43:19.766Z,92.2
2017-11-03T07:44:21.231Z,92.0
2017-11-03T07:45:22.656Z,92.8
2017-11-03T07:46:24.071Z,92.6
2017-11-03T07:47:25.530Z,92.2
2017-11-03T07:48:26.955Z,92.2
2017-11-03T07:49:28.441Z,92.3
2017-11-03T07:50:29.900Z,92.2
2017-11-03T07:51:31.329Z,92.1
2017-11-03T07:52:32.769Z,91.9
2017-11-03T07:53:34.172Z,91.4
2017-11-03T07:54:35.610Z,91.6
2017-11-03T07:55:37.004Z,91.2
2017-11-03T07:56:38.467Z,91.5
2017-11-03T07:57:39.876Z,91.4
2017-11-03T07:58:41.297Z,91.4
2017-11-03T07:59:42.762Z,91.3
2017-11-03T08:00:44.196Z,91.4
2017-11-03T08:01:45.618Z,91.0
2017-11-03T08:02:47.026Z,91.2
2017-11-03T08:03:48.463Z,91.7
2017-11-03T08:04:49.873Z,91.7
2017-11-03T08:05:51.344Z,90.9
2017-11-03T08:06:52.809Z,91.5
2017-11-03T08:07:54.257Z,90.4
2017-11-03T08:08:55.634Z,90.4
2017-11-03T08:09:57.114Z,89.7
2017-11-03T08:10:58.521Z,89.9
2017-11-03T08:11:59.937Z,89.7
2017-11-03T08:13:01.378Z,89.7
2017-11-03T08:14:02.816Z,90.1
2017-11-03T08:15:04.241Z,90.0
2017-11-03T08:16:05.688Z,89.8
2017-11-03T08:17:07.086Z,89.5
2017-11-03T08:18:08.522Z,89.7
2017-11-03T08:19:09.946Z,89.1
2017-11-03T08:20:11.349Z,89.3
2017-11-03T08:21:12.802Z,89.2
2017-11-03T08:22:14.237Z,88.6
2017-11-03T08:23:15.642Z,89.1
2017-11-03T08:24:17.065Z,88.6
2017-11-03T08:25:18.490Z,88.8
2017-11-03T08:26:19.916Z,88.8
2017-11-03T08:27:21.352Z,88.3
2017-11-03T08:28:23.041Z,88.3
2017-11-03T08:29:24.477Z,88.4
2017-11-03T08:30:25.913Z,88.3
2017-11-03T08:31:27.305Z,88.9
2017-11-03T08:32:28.756Z,88.6
2017-11-03T08:33:30.185Z,88.2
2017-11-03T08:34:31.591Z,88.5
2017-11-03T08:35:33.039Z,88.6
2017-11-03T08:36:34.434Z,88.3
2017-11-03T08:37:35.836Z,87.9
2017-11-03T08:38:37.366Z,88.4
2017-11-03T08:39:38.777Z,88.1
2017-11-03T08:40:40.212Z,88.3
2017-11-03T08:41:41.662Z,87.9
2017-11-03T08:42:43.164Z,88.3
2017-11-03T08:43:44.612Z,88.1
2017-11-03T08:44:46.048Z,87.5
2017-11-03T08:45:47.505Z,87.6
2017-11-03T08:46:48.936Z,88.0
2017-11-03T08:47:50.361Z,87.9
2017-11-03T08:48:51.775Z,88.8
2017-11-03T08:49:53.203Z,88.8
2017-11-03T08:50:54.654Z,88.3
2017-11-03T08:51:56.056Z,88.2
2017-11-03T08:52:57.528Z,87.8
2017-11-03T08:53:58.917Z,87.8
2017-11-03T08:55:00.370Z,87.7
2017-11-03T08:56:01.769Z,88.2
2017-11-03T08:57:03.185Z,87.8
2017-11-03T08:58:04.629Z,87.8
2017-11-03T08:59:06.080Z,87.6
2017-11-03T09:00:07.499Z,87.8
2017-11-03T09:01:08.947Z,87.4
2017-11-03T09:02:10.413Z,87.2
2017-11-03T09:03:11.816Z,87.3
2017-11-03T09:04:13.285Z,87.1
2017-11-03T09:05:14.684Z,86.6
2017-11-03T09:06:16.095Z,86.4
2017-11-03T09:07:17.557Z,87.1
2017-11-03T09:08:19.020Z,86.8
2017-11-03T09:09:20.437Z,87.7
2017-11-03T09:10:21.855Z,88.0
2017-11-03T09:11:23.313Z,87.7
2017-11-03T09:12:24.710Z,87.6
2017-11-03T09:13:26.147Z,87.7
2017-11-03T09:14:27.644Z,87.6
2017-11-03T09:15:29.136Z,87.2
2017-11-03T09:16:30.601Z,87.2
2017-11-03T09:17:32.095Z,86.9
2017-11-03T09:18:33.557Z,86.6
2017-11-03T09:19:35.005Z,86.2
2017-11-03T09:20:36.469Z,86.4
2017-11-03T09:21:37.964Z,86.9
2017-11-03T09:22:39.426Z,85.8
2017-11-03T09:23:40.857Z,85.7
2017-11-03T09:24:42.276Z,85.7
2017-11-03T09:25:43.707Z,86.5
2017-11-03T09:26:45.171Z,86.3
2017-11-03T09:27:46.594Z,85.8
2017-11-03T09:28:48.152Z,86.5
2017-11-03T09:29:49.558Z,85.8
2017-11-03T09:30:51.047Z,85.2
2017-11-03T09:31:52.558Z,85.9
2017-11-03T09:32:54.001Z,85.3
2017-11-03T09:33:55.444Z,85.6
2017-11-03T09:34:56.868Z,85.5
2017-11-03T09:35:58.285Z,85.4
2017-11-03T09:37:00.020Z,84.8
2017-11-03T09:38:01.505Z,85.4
2017-11-03T09:39:03.057Z,85.5
2017-11-03T09:40:04.472Z,85.1
2017-11-03T09:41:05.897Z,85.2
2017-11-03T09:42:07.365Z,85.4
2017-11-03T09:43:08.814Z,85.3
2017-11-03T09:44:10.310Z,85.2
2017-11-03T09:45:11.783Z,85.1
2017-11-03T09:46:13.295Z,84.8
2017-11-03T09:47:15.033Z,84.2
2017-11-03T09:48:16.449Z,83.3
2017-11-03T09:49:17.921Z,83.0
2017-11-03T09:50:19.379Z,83.3
2017-11-03T09:51:20.858Z,83.5
2017-11-03T09:52:22.280Z,82.8
2017-11-03T09:53:23.713Z,83.1
2017-11-03T09:54:25.158Z,83.3
2017-11-03T09:55:26.655Z,83.7
2017-11-03T09:56:28.181Z,83.4
2017-11-03T09:57:29.588Z,82.9
2017-11-03T09:58:31.039Z,82.7
2017-11-03T09:59:32.499Z,83.0
2017-11-03T10:00:33.930Z,82.7
2017-11-03T10:01:35.372Z,82.5
2017-11-03T10:02:36.818Z,82.3
2017-11-03T10:03:38.296Z,81.0
2017-11-03T10:04:39.686Z,81.4
2017-11-03T10:05:41.225Z,81.4
2017-11-03T10:06:42.700Z,81.9
2017-11-03T10:07:44.146Z,81.6
2017-11-03T10:08:45.612Z,81.4
2017-11-03T10:09:47.076Z,81.8
2017-11-03T10:10:48.581Z,81.4
2017-11-03T10:11:50.022Z,81.1
2017-11-03T10:12:51.443Z,81.9
2017-11-03T10:13:52.885Z,80.9
2017-11-03T10:14:54.354Z,81.2
2017-11-03T10:15:55.804Z,80.8
2017-11-03T10:16:57.236Z,80.3
2017-11-03T10:17:58.699Z,81.1
2017-11-03T10:19:00.371Z,81.1
2017-11-03T10:20:01.857Z,81.2
2017-11-03T10:21:03.311Z,80.5
2017-11-03T10:22:04.731Z,79.6
2017-11-03T10:23:06.153Z,79.9
2017-11-03T10:24:07.639Z,80.4
2017-11-03T10:25:09.068Z,79.9
2017-11-03T10:26:10.532Z,80.3
2017-11-03T10:27:11.935Z,80.8
2017-11-03T10:28:13.387Z,81.2
2017-11-03T10:29:14.823Z,80.7
2017-11-03T10:30:16.265Z,81.7
2017-11-03T10:31:17.693Z,81.9
2017-11-03T10:32:19.181Z,82.1
2017-11-03T10:33:20.615Z,81.5
2017-11-03T10:34:22.030Z,81.2
2017-11-03T10:35:23.534Z,80.2
2017-11-03T10:36:24.968Z,79.8
2017-11-03T10:37:26.369Z,79.7
2017-11-03T10:38:27.845Z,80.3
2017-11-03T10:39:29.274Z,80.8
2017-11-03T10:40:30.730Z,80.5
2017-11-03T10:41:32.245Z,79.7
2017-11-03T10:42:33.678Z,80.2
2017-11-03T10:43:35.137Z,80.4
2017-11-03T10:44:36.579Z,80.4
2017-11-03T10:45:38.047Z,80.9
2017-11-03T10:46:39.483Z,80.6
2017-11-03T10:47:40.921Z,80.6
2017-11-03T10:48:42.372Z,81.4
2017-11-03T10:49:43.812Z,81.2
2017-11-03T10:50:45.245Z,81.4
2017-11-03T10:51:46.681Z,80.6
2017-11-03T10:52:48.174Z,79.9
2017-11-03T10:53:49.600Z,79.5
2017-11-03T10:54:51.030Z,79.8
2017-11-03T10:55:52.488Z,80.6
2017-11-03T10:56:53.894Z,80.6
2017-11-03T10:57:55.298Z,80.2
2017-11-03T10:58:56.740Z,80.4
2017-11-03T10:59:58.184Z,80.5
2017-11-03T11:00:59.676Z,80.2
2017-11-03T11:02:01.061Z,80.8
2017-11-03T11:03:02.494Z,79.5
2017-11-03T11:04:03.935Z,79.7
2017-11-03T11:05:05.375Z,79.3
2017-11-03T11:06:06.808Z,80.0
2017-11-03T11:07:08.598Z,80.4
2017-11-03T11:08:10.007Z,80.9
2017-11-03T11:09:11.442Z,80.6
2017-11-03T11:10:12.853Z,80.6
2017-11-03T11:11:14.320Z,80.0
2017-11-03T11:12:15.730Z,79.5
2017-11-03T11:13:17.179Z,79.2
2017-11-03T11:14:18.648Z,79.2
2017-11-03T11:15:20.082Z,79.1
2017-11-03T11:16:21.532Z,78.9
2017-11-03T11:17:23.256Z,78.9
2017-11-03T11:18:24.732Z,78.6
2017-11-03T11:19:26.172Z,78.2
2017-11-03T11:20:27.621Z,78.7
2017-11-03T11:21:29.061Z,78.8
2017-11-03T11:22:30.502Z,78.8
2017-11-03T11:23:31.944Z,78.4
2017-11-03T11:24:33.436Z,78.8
2017-11-03T11:25:34.897Z,79.4
2017-11-03T11:26:36.369Z,79.3
2017-11-03T11:27:37.843Z,78.8
2017-11-03T11:28:39.301Z,77.9
2017-11-03T11:29:40.797Z,77.6
2017-11-03T11:30:42.227Z,77.6
2017-11-03T11:31:43.663Z,76.3
2017-11-03T11:32:45.125Z,76.8
2017-11-03T11:33:46.586Z,77.8
2017-11-03T11:34:48.025Z,78.0
2017-11-03T11:35:49.500Z,78.2
2017-11-03T11:36:50.908Z,79.4
2017-11-03T11:37:52.359Z,79.0
2017-11-03T11:38:53.814Z,78.2
2017-11-03T11:39:55.284Z,77.6
2017-11-03T11:40:56.758Z,80.0
2017-11-03T11:41:58.258Z,78.7
2017-11-03T11:42:59.664Z,78.2
2017-11-03T11:44:01.148Z,77.1
2017-11-03T11:45:02.638Z,77.1
2017-11-03T11:46:04.091Z,76.9
2017-11-03T11:47:05.494Z,76.8
2017-11-03T11:48:06.968Z,77.4
2017-11-03T11:49:08.415Z,76.6
2017-11-03T11:50:09.834Z,76.4
2017-11-03T11:51:11.345Z,75.4
2017-11-03T11:52:12.778Z,76.0
2017-11-03T11:53:14.263Z,76.3
2017-11-03T11:54:15.700Z,76.0
2017-11-03T11:55:17.217Z,75.0
2017-11-03T11:56:18.665Z,74.8
2017-11-03T11:57:20.189Z,74.0
2017-11-03T11:58:21.618Z,73.3
2017-11-03T11:59:23.073Z,72.0
2017-11-03T12:00:24.510Z,69.5
2017-11-03T12:01:25.977Z,68.2
2017-11-03T12:02:27.470Z,69.0
2017-11-03T12:03:29.162Z,68.1
2017-11-03T12:04:30.641Z,67.7
2017-11-03T12:05:32.107Z,67.2
2017-11-03T12:06:33.612Z,67.4
2017-11-03T12:07:35.047Z,67.0
2017-11-03T12:08:36.469Z,67.1
2017-11-03T12:09:37.893Z,67.9
2017-11-03T12:10:39.324Z,68.1
2017-11-03T12:11:40.752Z,67.5
2017-11-03T12:12:42.226Z,68.2
2017-11-03T12:13:43.769Z,68.1
2017-11-03T12:14:45.187Z,68.3
2017-11-03T12:15:46.595Z,69.1
2017-11-03T12:16:48.187Z,68.5
2017-11-03T12:17:49.611Z,69.4
2017-11-03T12:18:51.063Z,69.6
2017-11-03T12:19:52.504Z,69.5
2017-11-03T12:20:53.955Z,69.3
2017-11-03T12:21:55.391Z,68.9
2017-11-03T12:22:56.856Z,69.7
2017-11-03T12:23:58.288Z,70.0
2017-11-03T12:24:59.741Z,69.7
2017-11-03T12:26:01.201Z,70.6
2017-11-03T12:27:02.631Z,71.3
2017-11-03T12:28:04.100Z,71.3
2017-11-03T12:29:05.504Z,71.0
2017-11-03T12:30:07.016Z,71.7
2017-11-03T12:31:08.483Z,71.3
2017-11-03T12:32:09.954Z,71.8
2017-11-03T12:33:11.397Z,71.7
2017-11-03T12:34:12.852Z,72.5
2017-11-03T12:35:14.356Z,71.5
2017-11-03T12:36:15.936Z,71.5
2017-11-03T12:37:17.358Z,71.3
2017-11-03T12:38:18.841Z,71.5
2017-11-03T12:39:20.316Z,72.3
2017-11-03T12:40:21.725Z,72.6
2017-11-03T12:41:23.205Z,71.3
2017-11-03T12:42:24.675Z,71.4
2017-11-03T12:43:26.091Z,71.5
2017-11-03T12:44:27.555Z,70.9
2017-11-03T12:45:28.987Z,71.7
2017-11-03T12:46:30.459Z,71.1
2017-11-03T12:47:31.956Z,71.1
2017-11-03T12:48:33.428Z,70.5
2017-11-03T12:49:34.835Z,70.5
2017-11-03T12:50:36.302Z,70.2
2017-11-03T12:51:37.823Z,70.5
2017-11-03T12:52:39.641Z,68.9
2017-11-03T12:53:41.360Z,68.8
2017-11-03T12:54:42.818Z,68.7
2017-11-03T12:55:44.272Z,69.4
2017-11-03T12:56:45.718Z,70.7
2017-11-03T12:57:47.159Z,71.5
2017-11-03T12:58:48.624Z,72.2
2017-11-03T12:59:50.088Z,72.0
2017-11-03T13:00:51.577Z,73.1
2017-11-03T13:01:53.062Z,73.0
2017-11-03T13:02:54.505Z,73.6
2017-11-03T13:03:55.956Z,73.8
2017-11-03T13:04:57.420Z,72.0
2017-11-03T13:05:58.878Z,71.7
2017-11-03T13:07:00.340Z,71.4
2017-11-03T13:08:01.812Z,71.0
2017-11-03T13:09:03.340Z,72.0
2017-11-03T13:10:04.790Z,72.8
2017-11-03T13:11:06.223Z,72.4
2017-11-03T13:12:07.633Z,72.2
2017-11-03T13:13:09.064Z,72.2
2017-11-03T13:14:10.498Z,71.7
2017-11-03T13:15:11.941Z,71.1
2017-11-03T13:16:13.388Z,71.3
2017-11-03T13:17:14.835Z,69.4
2017-11-03T13:18:16.272Z,69.1
2017-11-03T13:19:17.734Z,68.9
2017-11-03T13:20:19.182Z,66.7
2017-11-03T13:21:20.669Z,65.6
2017-11-03T13:22:22.092Z,64.7
2017-11-03T13:23:23.576Z,63.5
2017-11-03T13:24:25.107Z,64.0
2017-11-03T13:25:26.547Z,62.4
2017-11-03T13:26:28.005Z,62.2
2017-11-03T13:27:29.451Z,61.6
2017-11-03T13:28:30.894Z,61.9
2017-11-03T13:29:32.327Z,62.0
2017-11-03T13:30:33.795Z,61.4
2017-11-03T13:31:35.226Z,62.1
2017-11-03T13:32:36.664Z,61.6
2017-11-03T13:33:38.082Z,61.1
2017-11-03T13:34:39.516Z,62.3
2017-11-03T13:35:40.955Z,62.1
2017-11-03T13:36:42.394Z,61.3
2017-11-03T13:37:43.891Z,61.2